Time;durP1;ratioP1;P1;durP2;ratioP2;P2;SDS_P1;SDS_P2;PMS_P1;PMS_P2;Temp;Humidity;BMP_temperature;BMP_pressure;BME280_temperature;BME280_humidity;BME280_pressure;Samples;Min_cycle;Max_cycle;Signal;HPM_P1;HPM_P2
2020/12/30 00:00:55;;;;;;;67.00;33.05;;;;;;;3.97;98.78;99929.98;1728134;83;21593;-65
2020/12/30 00:03:23;;;;;;;69.82;30.15;;;;;;;3.99;98.66;99945.16;1727964;83;21478;-65
2020/12/30 00:05:51;;;;;;;61.70;30.85;;;;;;;3.98;98.62;99948.66;1728036;83;22229;-64
2020/12/30 00:08:18;;;;;;;57.88;27.22;;;;;;;4.00;98.58;99948.63;1727737;83;21190;-65
2020/12/30 00:10:46;;;;;;;64.10;30.88;;;;;;;3.99;98.58;99958.64;1727911;83;21670;-64
2020/12/30 00:13:14;;;;;;;64.12;30.27;;;;;;;3.98;98.52;99956.48;1727924;83;21640;-65
2020/12/30 00:15:42;;;;;;;62.93;31.33;;;;;;;3.99;98.59;99964.70;1727878;83;21192;-63
2020/12/30 00:18:10;;;;;;;67.35;33.58;;;;;;;4.01;98.48;99965.14;1727776;83;21324;-65
2020/12/30 00:20:38;;;;;;;75.78;35.50;;;;;;;3.98;98.38;99964.30;1727659;83;21230;-63
2020/12/30 00:23:05;;;;;;;62.70;31.17;;;;;;;3.95;98.39;99952.59;1727671;82;21605;-65
2020/12/30 00:25:33;;;;;;;68.50;33.13;;;;;;;3.94;98.46;99966.52;1727713;83;21202;-64
2020/12/30 00:28:01;;;;;;;65.95;32.25;;;;;;;3.95;98.47;99963.46;1727579;83;21285;-66
2020/12/30 00:30:30;;;;;;;55.08;28.80;;;;;;;3.97;98.46;99966.47;1735409;82;21367;-66
2020/12/30 00:32:59;;;;;;;57.08;29.67;;;;;;;3.97;98.34;99971.67;1741305;82;21178;-65
2020/12/30 00:35:26;;;;;;;63.33;31.77;;;;;;;3.98;98.32;99973.42;1741480;82;21636;-65
2020/12/30 00:37:54;;;;;;;58.85;31.12;;;;;;;3.98;98.32;99974.72;1741352;81;21700;-63
2020/12/30 00:40:21;;;;;;;59.40;30.00;;;;;;;4.01;98.23;99975.56;1741324;82;21175;-64
2020/12/30 00:42:50;;;;;;;54.67;28.62;;;;;;;4.01;98.14;99968.61;1741498;82;21378;-64
2020/12/30 00:45:18;;;;;;;60.98;31.30;;;;;;;3.98;98.08;99965.60;1741120;82;21460;-63
2020/12/30 00:47:45;;;;;;;55.45;27.60;;;;;;;3.98;98.15;99970.81;1745010;80;21574;-63
2020/12/30 00:50:14;;;;;;;49.55;25.62;;;;;;;3.98;98.10;99969.52;1747383;82;21641;-65
2020/12/30 00:52:42;;;;;;;71.10;34.33;;;;;;;3.98;98.02;99972.12;1747846;82;21163;-64
2020/12/30 00:55:13;;;;;;;52.48;29.07;;;;;;;3.94;97.97;99975.64;1747521;82;21382;-65
2020/12/30 00:57:43;;;;;;;72.70;36.70;;;;;;;3.94;97.87;99973.48;1746465;82;21190;-64
2020/12/30 01:00:11;;;;;;;71.35;36.05;;;;;;;3.92;98.02;99976.09;1747352;82;21645;-65
2020/12/30 01:02:54;;;;;;;76.53;36.50;;;;;;;3.93;97.84;99977.83;1818551;76;24185;-64
2020/12/30 01:05:22;;;;;;;66.02;33.98;;;;;;;3.85;97.82;99982.70;1784239;80;22272;-64
2020/12/30 01:07:50;;;;;;;71.70;35.58;;;;;;;3.84;97.84;99978.36;1784147;80;21581;-63
2020/12/30 01:10:17;;;;;;;66.30;34.50;;;;;;;3.82;97.96;99980.12;1784080;80;21579;-63
2020/12/30 01:12:45;;;;;;;52.98;27.52;;;;;;;3.82;97.96;99980.12;1784218;80;21624;-63
2020/12/30 01:15:13;;;;;;;61.75;32.42;;;;;;;3.80;97.88;99974.95;1784226;80;21551;-64
2020/12/30 01:17:40;;;;;;;74.90;35.95;;;;;;;3.81;97.99;99979.27;1784440;80;21658;-63
2020/12/30 01:20:08;;;;;;;59.93;31.33;;;;;;;3.83;98.01;99972.30;1784207;80;22082;-64
2020/12/30 01:22:36;;;;;;;52.03;27.75;;;;;;;3.84;98.07;99975.30;1784288;80;21198;-63
2020/12/30 01:25:04;;;;;;;53.90;28.15;;;;;;;3.85;97.78;99977.50;1784191;79;21158;-65
2020/12/30 01:27:32;;;;;;;51.75;28.75;;;;;;;3.85;97.84;99978.36;1784195;79;21544;-64
2020/12/30 01:30:00;;;;;;;46.63;24.85;;;;;;;3.88;97.86;99979.61;1784439;80;21554;-63
2020/12/30 01:32:27;;;;;;;67.10;34.50;;;;;;;3.91;97.86;99983.91;1784036;79;21352;-66
2020/12/30 01:34:56;;;;;;;56.90;29.72;;;;;;;3.88;97.76;99988.73;1784110;80;21155;-64
2020/12/30 01:37:25;;;;;;;64.17;33.53;;;;;;;3.85;97.62;99987.47;1783961;80;21459;-64
2020/12/30 01:39:52;;;;;;;57.00;28.42;;;;;;;3.84;97.51;99991.38;1784139;80;21664;-63
2020/12/30 01:42:20;;;;;;;50.80;26.65;;;;;;;3.83;97.71;99988.38;1783980;80;21210;-65
2020/12/30 01:44:49;;;;;;;66.37;33.45;;;;;;;3.81;97.73;99990.12;1781506;80;21380;-65
2020/12/30 01:47:17;;;;;;;52.98;27.58;;;;;;;3.78;97.73;99990.59;1734484;82;21690;-65
2020/12/30 01:49:45;;;;;;;58.42;31.73;;;;;;;3.75;97.75;99994.95;1734739;82;21197;-65
2020/12/30 01:52:13;;;;;;;61.68;33.40;;;;;;;3.78;97.82;99987.98;1703884;82;21184;-64
2020/12/30 01:54:40;;;;;;;60.73;31.87;;;;;;;3.79;97.80;99984.48;1734765;82;21631;-64
2020/12/30 01:57:08;;;;;;;55.63;30.17;;;;;;;3.80;97.72;99971.04;1734746;81;21206;-64
2020/12/30 01:59:35;;;;;;;55.35;30.12;;;;;;;3.77;97.66;99972.36;1734655;82;21142;-65
2020/12/30 02:02:08;;;;;;;56.80;30.90;;;;;;;3.76;97.71;99971.95;1737543;81;21632;-64
2020/12/30 02:04:52;;;;;;;56.55;28.73;;;;;;;3.77;97.75;99971.05;1737755;82;21161;-65
2020/12/30 02:07:23;;;;;;;59.00;31.10;;;;;;;3.77;97.80;99956.73;1737569;82;21177;-65
2020/12/30 02:09:52;;;;;;;52.90;29.00;;;;;;;3.79;97.89;99947.16;1737789;82;22723;-64
2020/12/30 02:12:21;;;;;;;59.27;32.47;;;;;;;3.81;97.81;99955.81;1737746;82;21236;-64
2020/12/30 02:14:50;;;;;;;56.95;29.23;;;;;;;3.83;97.76;99961.88;1737211;82;21220;-66
2020/12/30 02:17:18;;;;;;;60.03;28.65;;;;;;;3.85;97.72;99967.94;1737023;82;21205;-64
2020/12/30 02:19:46;;;;;;;51.90;28.38;;;;;;;3.88;97.76;99961.38;1737175;82;21126;-65
2020/12/30 02:22:18;;;;;;;63.20;31.37;;;;;;;3.90;97.76;99963.52;1737037;82;21376;-64
2020/12/30 02:24:46;;;;;;;58.48;30.48;;;;;;;3.91;97.73;99966.98;1758106;81;21218;-64
2020/12/30 02:27:14;;;;;;;54.83;29.55;;;;;;;3.91;97.69;99962.66;1731283;81;21652;-64
2020/12/30 02:29:42;;;;;;;53.95;28.30;;;;;;;3.92;97.61;99956.55;1758285;81;21625;-66
2020/12/30 02:32:09;;;;;;;47.25;27.85;;;;;;;3.91;97.47;99957.45;1758136;81;21135;-63
2020/12/30 02:34:38;;;;;;;62.27;29.18;;;;;;;3.86;97.40;99951.41;1758174;81;22249;-64
2020/12/30 02:37:05;;;;;;;51.70;26.73;;;;;;;3.83;97.43;99950.16;1758103;81;21192;-64
2020/12/30 02:39:33;;;;;;;48.95;25.95;;;;;;;3.82;97.49;99947.14;1758115;81;21557;-65
2020/12/30 02:42:01;;;;;;;53.50;28.20;;;;;;;3.84;97.54;99951.86;1758182;81;21217;-64
2020/12/30 02:44:29;;;;;;;60.80;26.20;;;;;;;3.87;97.49;99952.30;1758190;81;21157;-65
2020/12/30 02:46:58;;;;;;;62.60;28.38;;;;;;;3.87;97.41;99953.15;1781253;80;21185;-65
2020/12/30 02:49:26;;;;;;;63.55;24.77;;;;;;;3.86;97.41;99954.02;1782417;80;21139;-63
2020/12/30 02:51:53;;;;;;;49.23;23.35;;;;;;;3.86;97.41;99965.73;1782652;80;21626;-65
2020/12/30 02:54:21;;;;;;;47.43;25.23;;;;;;;3.86;97.41;99955.77;1782339;80;21186;-64
2020/12/30 02:56:49;;;;;;;54.35;27.67;;;;;;;3.86;97.44;99952.70;1782504;80;21139;-66
2020/12/30 02:59:17;;;;;;;38.70;24.15;;;;;;;3.86;97.41;99951.86;1782236;80;21639;-64
2020/12/30 03:01:45;;;;;;;54.40;26.62;;;;;;;3.87;97.38;99949.69;1782754;80;21653;-65
2020/12/30 03:04:13;;;;;;;56.40;27.40;;;;;;;3.87;97.32;99944.48;1784791;80;21179;-65
2020/12/30 03:06:40;;;;;;;62.98;27.75;;;;;;;3.87;97.31;99946.63;1785087;80;21163;-64
2020/12/30 03:09:08;;;;;;;60.05;25.68;;;;;;;3.88;97.48;99952.25;1784988;80;22211;-64
2020/12/30 03:11:36;;;;;;;56.48;28.60;;;;;;;3.88;97.51;99947.48;1784829;80;21287;-64
2020/12/30 03:14:05;;;;;;;59.70;28.70;;;;;;;3.91;97.50;99952.66;1784724;80;21151;-65
2020/12/30 03:16:33;;;;;;;45.75;24.98;;;;;;;3.93;97.48;99950.89;1780721;80;21173;-64
2020/12/30 03:19:01;;;;;;;44.50;26.05;;;;;;;3.92;97.41;99950.48;1734579;82;21192;-66
2020/12/30 03:21:28;;;;;;;38.40;22.40;;;;;;;3.91;97.36;99948.33;1734530;82;21248;-64
2020/12/30 03:23:56;;;;;;;49.33;26.42;;;;;;;3.91;97.39;99943.12;1734536;82;21411;-65
2020/12/30 03:26:25;;;;;;;67.35;26.25;;;;;;;3.92;97.39;99948.73;1734599;82;21223;-64
2020/12/30 03:28:52;;;;;;;62.75;28.67;;;;;;;3.94;97.44;99950.03;1734726;82;21179;-64
2020/12/30 03:31:20;;;;;;;63.70;29.70;;;;;;;3.93;97.46;99943.08;1734643;82;21658;-65
2020/12/30 03:33:47;;;;;;;46.73;25.08;;;;;;;3.94;97.40;99944.81;1734628;82;21206;-65
2020/12/30 03:36:15;;;;;;;52.45;27.00;;;;;;;3.92;97.32;99943.52;1734709;82;22289;-66
2020/12/30 03:38:43;;;;;;;57.43;29.05;;;;;;;3.93;97.31;99940.05;1734641;82;21159;-63
2020/12/30 03:41:10;;;;;;;76.90;30.55;;;;;;;3.90;97.17;99936.16;1734580;82;21191;-64
2020/12/30 03:43:38;;;;;;;63.68;31.60;;;;;;;3.90;97.35;99940.07;1734693;82;21211;-62
2020/12/30 03:46:05;;;;;;;57.03;31.07;;;;;;;3.88;97.28;99944.44;1727880;82;21643;-64
2020/12/30 03:48:33;;;;;;;66.97;30.72;;;;;;;3.89;97.21;99943.58;1710267;83;21725;-63
2020/12/30 03:51:01;;;;;;;50.37;27.07;;;;;;;3.88;97.12;99932.71;1710305;83;21126;-64
2020/12/30 03:53:29;;;;;;;75.62;32.90;;;;;;;3.86;97.03;99925.36;1753788;81;21115;-64
2020/12/30 03:56:00;;;;;;;75.40;34.00;;;;;;;3.82;97.08;99925.00;1753906;81;21170;-62
2020/12/30 03:58:28;;;;;;;68.67;34.33;;;;;;;3.79;97.08;99917.20;1753776;80;21163;-63
2020/12/30 04:00:56;;;;;;;85.25;37.23;;;;;;;3.78;96.99;99923.31;1734592;82;21440;-64
2020/12/30 04:03:23;;;;;;;76.05;34.40;;;;;;;3.76;96.79;99922.02;1762246;80;21681;-63
2020/12/30 04:05:51;;;;;;;107.78;40.48;;;;;;;3.69;96.69;99933.84;1763766;81;21650;-64
2020/12/30 04:08:19;;;;;;;88.60;39.90;;;;;;;3.65;96.73;99929.54;1731973;82;21191;-66
2020/12/30 04:10:46;;;;;;;97.00;40.17;;;;;;;3.58;96.59;99938.72;1740258;79;21131;-81
2020/12/30 04:13:24;;;;;;;76.17;39.30;;;;;;;3.52;96.43;99941.83;1719511;79;76350;31
2020/12/30 04:15:58;;;;;;;100.07;41.48;;;;;;;3.45;96.33;99947.57;1763060;79;21075;31
2020/12/30 04:21:27;;;;;;;104.60;44.33;;;;;;;3.29;96.34;99949.47;1739526;77;21093;-85
2020/12/30 04:23:55;;;;;;;97.92;40.52;;;;;;;3.22;96.36;99950.41;1726590;79;21143;-84
2020/12/30 04:26:26;;;;;;;75.57;37.63;;;;;;;3.22;96.40;99948.22;1715429;78;21358;31
2020/12/30 04:28:56;;;;;;;78.40;35.30;;;;;;;3.21;96.47;99942.61;1733594;78;77264;-82
2020/12/30 04:31:38;;;;;;;95.72;40.60;;;;;;;3.18;96.71;99956.52;1803668;75;21409;31
2020/12/30 04:34:06;;;;;;;68.72;36.05;;;;;;;3.18;96.71;99956.52;1829352;76;21088;-85
2020/12/30 04:36:34;;;;;;;78.12;36.28;;;;;;;3.18;96.50;99964.77;1824557;75;21150;-82
2020/12/30 04:39:02;;;;;;;69.27;36.10;;;;;;;3.18;96.50;99964.77;1768446;77;76310;-81
2020/12/30 04:41:39;;;;;;;65.90;34.55;;;;;;;3.17;96.59;99966.93;1739766;80;74379;-83
2020/12/30 04:47:39;;;;;;;117.70;55.77;;;;;;;3.14;96.75;99966.08;1809122;72;75269;31
2020/12/30 04:50:07;;;;;;;101.10;47.55;;;;;;;3.19;97.00;99974.29;1787972;79;21135;-84
2020/12/30 04:52:34;;;;;;;80.90;40.00;;;;;;;3.22;96.95;99966.03;1788254;78;21708;-82
2020/12/30 04:55:02;;;;;;;68.20;34.38;;;;;;;3.23;96.91;99968.19;1796281;76;21091;-82
2020/12/30 04:57:44;;;;;;;76.17;34.48;;;;;;;3.26;96.96;99968.14;1792269;77;21154;-87
2020/12/30 05:00:12;;;;;;;67.67;34.63;;;;;;;3.27;97.19;99968.59;1760691;81;21123;-87
2020/12/30 05:15:34;;;;;;;77.47;34.92;;;;;;;3.83;94.86;99954.06;1764723;76;73507;-81
2020/12/30 05:18:04;;;;;;;83.10;37.40;;;;;;;3.78;94.64;99948.05;1767037;80;20942;-78
2020/12/30 05:20:46;;;;;;;83.37;38.27;;;;;;;3.73;94.80;99948.55;1769434;77;74535;-78
2020/12/30 05:23:14;;;;;;;85.95;35.23;;;;;;;3.60;95.03;99946.52;1705474;83;20959;-78
2020/12/30 05:25:43;;;;;;;72.30;33.23;;;;;;;3.53;95.12;99954.84;1700733;84;21358;-78
2020/12/30 05:28:13;;;;;;;64.17;33.53;;;;;;;3.46;95.30;99949.28;1700513;84;20972;-78
2020/12/30 05:30:41;;;;;;;74.65;35.58;;;;;;;3.40;95.46;99958.89;1701064;81;21086;-80
2020/12/30 05:33:09;;;;;;;74.53;35.28;;;;;;;3.33;95.72;99964.16;1701592;84;21082;-81
2020/12/30 05:35:37;;;;;;;74.20;36.23;;;;;;;3.29;95.88;99963.78;1701503;84;21078;-80
2020/12/30 05:38:04;;;;;;;69.22;35.58;;;;;;;3.27;96.01;99972.05;1701546;80;21316;-81
2020/12/30 05:40:34;;;;;;;66.33;34.92;;;;;;;3.27;96.14;99976.39;1701520;80;20972;-81
2020/12/30 05:43:13;;;;;;;70.55;36.50;;;;;;;3.24;96.23;99969.45;1700940;83;21032;-81
2020/12/30 05:45:52;;;;;;;80.75;38.95;;;;;;;3.23;96.27;99978.59;1700332;84;21072;-83
2020/12/30 05:48:22;;;;;;;76.25;35.83;;;;;;;3.21;96.52;99981.20;1700865;84;21051;-80
2020/12/30 05:50:58;;;;;;;69.05;34.53;;;;;;;3.19;96.59;99975.14;1699893;84;21363;-77
2020/12/30 05:53:25;;;;;;;76.85;36.33;;;;;;;3.19;96.66;99973.84;1700387;84;21147;-79
2020/12/30 05:56:10;;;;;;;72.10;37.53;;;;;;;3.19;96.69;99983.40;1701209;84;21084;-79
2020/12/30 05:58:44;;;;;;;84.87;36.85;;;;;;;3.19;96.71;99982.09;1701320;84;21142;-80
2020/12/30 06:01:25;;;;;;;78.92;37.55;;;;;;;3.17;96.85;99979.94;1701000;84;21040;-79
2020/12/30 06:03:52;;;;;;;84.07;37.50;;;;;;;3.15;96.95;99979.53;1701649;83;21360;-79
2020/12/30 06:06:21;;;;;;;70.08;33.70;;;;;;;3.17;97.10;99979.94;1701045;84;21142;-79
2020/12/30 06:08:49;;;;;;;65.90;33.10;;;;;;;3.21;97.19;99992.06;1701306;83;21114;-80
2020/12/30 06:11:22;;;;;;;66.33;34.35;;;;;;;3.21;97.19;99992.06;1701599;83;21111;-79
2020/12/30 06:13:52;;;;;;;65.65;34.60;;;;;;;3.25;97.42;99993.76;1700392;84;21067;-79
2020/12/30 06:16:22;;;;;;;73.37;41.50;;;;;;;3.28;97.49;99999.78;1699854;84;21362;-76
2020/12/30 06:18:49;;;;;;;82.37;41.35;;;;;;;3.30;97.86;100002.38;1670290;84;21558;-75
2020/12/30 06:21:17;;;;;;;72.97;38.80;;;;;;;3.30;97.86;100002.38;1686227;83;21112;-77
2020/12/30 06:23:44;;;;;;;89.03;48.48;;;;;;;3.31;97.47;100002.79;1683192;85;21138;-78
2020/12/30 06:26:17;;;;;;;66.05;37.23;;;;;;;3.32;97.40;99995.42;1683385;85;21088;-77
2020/12/30 06:28:48;;;;;;;73.65;39.65;;;;;;;3.37;97.55;100001.44;1683668;85;21359;-76
2020/12/30 06:31:16;;;;;;;108.00;48.10;;;;;;;3.39;97.53;100011.84;1685616;83;21112;-82
2020/12/30 06:33:43;;;;;;;64.27;32.23;;;;;;;3.38;97.50;100008.36;1685984;85;21109;-84
2020/12/30 06:36:11;;;;;;;59.45;29.87;;;;;;;3.38;97.46;100010.96;1725677;78;73505;-81
2020/12/30 06:38:41;;;;;;;59.18;30.45;;;;;;;3.36;97.43;100003.19;1742201;81;21039;-82
2020/12/30 06:41:09;;;;;;;49.25;27.10;;;;;;;3.39;97.40;100007.95;1766502;80;21328;-80
2020/12/30 06:43:50;;;;;;;63.80;34.63;;;;;;;3.37;97.39;99998.84;1785302;80;21067;-82
2020/12/30 06:46:28;;;;;;;59.03;31.57;;;;;;;3.36;97.42;99994.52;1783883;80;21114;-82
2020/12/30 06:49:05;;;;;;;59.27;32.85;;;;;;;3.39;97.45;100002.30;1763785;81;21088;-82
2020/12/30 06:51:40;;;;;;;47.17;26.65;;;;;;;3.39;97.57;99995.78;1763506;80;21438;-80
2020/12/30 06:54:08;;;;;;;61.30;32.15;;;;;;;3.40;97.39;100000.55;1754877;80;21368;-82
2020/12/30 06:56:45;;;;;;;60.88;32.13;;;;;;;3.42;97.52;99990.53;1739268;80;21883;-77
2020/12/30 06:59:26;;;;;;;80.47;39.78;;;;;;;3.45;97.46;99984.02;1739864;80;21116;-76
2020/12/30 07:02:02;;;;;;;61.77;32.83;;;;;;;3.45;97.45;99982.72;1807776;79;21129;-76
2020/12/30 07:04:32;;;;;;;67.37;33.38;;;;;;;3.47;97.46;99986.58;1809688;79;21073;-77
2020/12/30 07:07:01;;;;;;;;;;;;;;;3.49;97.47;99977.87;1812385;79;21616;-76
2020/12/30 07:09:34;;;;;;;58.33;30.40;;;;;;;3.51;97.45;99977.87;1809317;79;20231;-76
2020/12/30 07:12:06;;;;;;;62.67;32.30;;;;;;;3.50;97.55;99969.20;1794085;77;21088;-74
2020/12/30 07:14:35;;;;;;;51.73;27.35;;;;;;;3.53;97.56;99965.25;1797407;79;21515;-75
2020/12/30 07:17:07;;;;;;;85.25;43.38;;;;;;;3.53;97.56;99958.75;1809610;79;21077;-75
2020/12/30 07:19:40;;;;;;;61.28;34.75;;;;;;;3.55;97.47;99951.78;1809506;79;21353;-77
2020/12/30 07:22:14;;;;;;;57.00;30.82;;;;;;;3.54;97.36;99964.39;1809358;79;21128;-76
2020/12/30 07:24:53;;;;;;;79.58;34.95;;;;;;;3.50;97.34;99953.58;1809235;77;21183;-76
2020/12/30 07:27:24;;;;;;;73.63;35.43;;;;;;;3.53;97.37;99957.44;1787547;79;21152;-77
2020/12/30 07:29:52;;;;;;;59.38;32.50;;;;;;;3.52;97.34;99954.43;1809397;77;21101;-75
2020/12/30 07:32:19;;;;;;;51.65;28.52;;;;;;;3.52;97.28;99970.47;1809043;79;21293;-75
2020/12/30 07:34:52;;;;;;;46.75;25.37;;;;;;;3.51;97.20;99971.36;1809407;79;21140;-76
2020/12/30 07:37:20;;;;;;;45.23;23.65;;;;;;;3.52;97.32;99975.27;1809671;79;21579;-76
2020/12/30 07:39:49;;;;;;;71.40;37.85;;;;;;;3.51;97.43;99973.52;1810067;77;21156;-75
2020/12/30 07:42:27;;;;;;;51.45;25.88;;;;;;;3.53;97.42;99971.77;1805996;79;21092;-72
2020/12/30 07:44:56;;;;;;;57.50;29.92;;;;;;;3.54;97.36;99965.70;1771257;77;22671;-67
2020/12/30 07:47:26;;;;;;;80.40;34.63;;;;;;;3.54;97.47;99963.09;1701775;83;21417;-66
2020/12/30 07:50:02;;;;;;;62.98;31.82;;;;;;;3.57;97.60;99966.95;1710344;81;21145;-66
2020/12/30 07:52:32;;;;;;;52.40;27.32;;;;;;;3.61;97.53;99976.02;1697113;83;21166;-65
2020/12/30 07:55:00;;;;;;;44.77;24.40;;;;;;;3.65;97.72;99969.91;1709152;83;21116;-65
2020/12/30 07:57:27;;;;;;;50.58;25.20;;;;;;;3.68;97.74;99978.97;1702363;82;21359;-65
2020/12/30 07:59:57;;;;;;;57.45;29.60;;;;;;;3.70;97.88;99980.68;1701509;84;21155;-65
2020/12/30 08:02:24;;;;;;;46.92;20.97;;;;;;;3.73;97.85;99976.76;1699189;84;21148;-68
2020/12/30 08:05:01;;;;;;;53.60;27.80;;;;;;;3.76;97.92;99988.88;1645647;84;21126;-65
2020/12/30 08:07:31;;;;;;;46.60;25.45;;;;;;;3.79;97.98;99987.53;1632240;87;21137;-66
2020/12/30 08:09:59;;;;;;;45.00;25.65;;;;;;;3.80;98.13;99981.46;1660019;86;21349;-67
2020/12/30 08:12:27;;;;;;;52.62;26.75;;;;;;;3.83;98.07;99969.69;1679449;84;21131;-67
2020/12/30 08:14:55;;;;;;;51.75;27.15;;;;;;;3.87;98.05;99972.69;1692607;84;21179;-68
2020/12/30 08:17:23;;;;;;;48.65;25.72;;;;;;;3.90;98.07;99969.18;1632566;85;21739;-67
2020/12/30 08:19:51;;;;;;;51.60;28.12;;;;;;;3.90;98.07;99970.48;1665554;85;21169;-66
2020/12/30 08:22:29;;;;;;;43.83;25.55;;;;;;;3.83;97.71;99977.51;1690358;84;21721;-66
2020/12/30 08:24:58;;;;;;;42.70;24.25;;;;;;;3.83;97.71;99977.51;1678127;85;21558;-65
2020/12/30 08:27:31;;;;;;;49.77;25.43;;;;;;;3.88;98.19;99980.91;1681721;85;21119;-66
2020/12/30 08:30:01;;;;;;;44.15;24.77;;;;;;;3.91;98.17;99980.01;1681327;84;21116;-65
2020/12/30 08:32:41;;;;;;;41.08;22.77;;;;;;;3.94;98.37;99973.03;1681717;85;21072;-67
2020/12/30 08:35:18;;;;;;;47.62;26.77;;;;;;;3.94;98.25;99973.03;1662533;84;21423;-67
2020/12/30 08:38:11;;;;;;;41.88;22.15;;;;;;;3.99;98.28;99962.10;1657330;86;21105;-65
2020/12/30 08:40:40;;;;;;;;;;;;;;;4.03;98.32;99964.69;1659810;85;21125;-66
2020/12/30 08:43:28;;;;;;;41.63;22.15;;;;;;;4.02;98.29;99952.52;1657123;85;20195;-66
2020/12/30 08:46:03;;;;;;;49.70;27.10;;;;;;;4.05;98.25;99949.45;1657642;85;21576;-66
2020/12/30 08:48:31;;;;;;;47.45;25.20;;;;;;;4.12;98.30;99947.63;1663780;84;21527;-67
2020/12/30 08:50:59;;;;;;;43.33;22.13;;;;;;;4.16;98.33;99946.68;1665174;85;21098;-66
2020/12/30 08:53:37;;;;;;;46.40;25.52;;;;;;;4.19;98.34;99951.88;1688453;83;21191;-65
2020/12/30 08:56:05;;;;;;;43.73;23.60;;;;;;;4.24;98.22;99959.17;1677121;84;21132;-66
2020/12/30 08:58:34;;;;;;;36.68;19.32;;;;;;;4.28;98.07;99956.06;1687861;84;21128;-67
2020/12/30 09:01:04;;;;;;;51.13;25.55;;;;;;;4.28;98.08;99951.74;1689060;84;21381;-65
2020/12/30 09:03:32;;;;;;;45.25;22.50;;;;;;;4.29;98.08;99946.94;1684662;84;21146;-66
2020/12/30 09:05:59;;;;;;;40.45;21.75;;;;;;;4.32;97.97;99949.48;1663098;86;21145;-66
2020/12/30 09:08:29;;;;;;;44.60;24.05;;;;;;;4.34;97.93;99937.30;1757699;81;21116;-66
2020/12/30 09:10:57;;;;;;;44.73;22.62;;;;;;;4.38;98.03;99941.59;1768359;79;21100;-65
2020/12/30 09:13:30;;;;;;;39.20;21.80;;;;;;;4.44;98.09;99936.73;1740554;81;21191;-65
2020/12/30 09:16:04;;;;;;;40.23;21.33;;;;;;;4.49;97.97;99939.28;1738019;82;21579;-66
2020/12/30 09:18:32;;;;;;;33.53;17.20;;;;;;;4.53;97.86;99933.99;1736159;82;21112;-64
2020/12/30 09:21:00;;;;;;;36.50;20.32;;;;;;;4.55;97.84;99942.63;1738131;81;21589;-67
2020/12/30 09:23:27;;;;;;;31.10;16.80;;;;;;;4.57;97.85;99945.22;1753137;79;21121;-75
2020/12/30 09:25:56;;;;;;;31.68;15.53;;;;;;;4.60;97.80;99935.61;1761397;81;21245;-76
2020/12/30 09:28:25;;;;;;;30.45;17.07;;;;;;;4.64;97.80;99940.32;1749765;81;21854;-75
2020/12/30 09:30:54;;;;;;;33.70;18.82;;;;;;;4.65;97.69;99934.23;1767065;81;21914;-75
2020/12/30 09:33:25;;;;;;;34.13;17.27;;;;;;;4.66;97.72;99937.25;1756845;81;21161;-75
2020/12/30 09:35:53;;;;;;;28.38;15.58;;;;;;;4.67;97.76;99935.08;1743826;81;21090;-76
2020/12/30 09:38:23;;;;;;;38.67;18.45;;;;;;;4.71;97.66;99926.29;1811651;77;21455;-66
2020/12/30 09:40:55;;;;;;;35.25;18.37;;;;;;;4.72;97.54;99929.34;1799853;78;21245;-65
2020/12/30 09:43:25;;;;;;;36.70;18.67;;;;;;;4.73;97.51;99922.36;1784351;79;21136;-66
2020/12/30 09:46:00;;;;;;;36.85;18.85;;;;;;;4.73;97.54;99915.39;1785516;80;21103;-65
2020/12/30 09:48:27;;;;;;;36.48;18.07;;;;;;;4.73;97.58;99915.39;1785211;80;21073;-65
2020/12/30 09:50:55;;;;;;;35.58;18.82;;;;;;;4.75;97.48;99922.75;1785148;80;21284;-66
2020/12/30 09:53:23;;;;;;;29.55;16.17;;;;;;;4.75;97.43;99911.02;1785330;80;21626;-65
2020/12/30 09:55:51;;;;;;;33.20;16.97;;;;;;;4.77;97.41;99909.24;1785274;79;21108;-67
2020/12/30 09:58:19;;;;;;;40.25;18.60;;;;;;;4.76;97.42;99902.73;1785339;80;21092;-66
2020/12/30 10:00:46;;;;;;;35.90;17.40;;;;;;;4.75;97.50;99895.81;1785640;80;21101;-67
2020/12/30 10:03:14;;;;;;;34.98;17.32;;;;;;;4.73;97.45;99899.73;1785027;80;22286;-66
2020/12/30 10:05:42;;;;;;;33.85;17.20;;;;;;;4.76;97.44;99901.02;1790897;79;21155;-68
2020/12/30 10:08:10;;;;;;;33.18;17.75;;;;;;;4.78;97.39;99900.52;1747849;81;21077;-66
2020/12/30 10:10:37;;;;;;;35.03;17.87;;;;;;;4.77;97.47;99897.50;1785238;80;21105;-68
2020/12/30 10:13:05;;;;;;;33.55;18.85;;;;;;;4.78;97.52;99900.52;1778053;80;21101;-67
2020/12/30 10:15:33;;;;;;;28.75;15.65;;;;;;;4.77;97.52;99898.81;1754191;80;22105;-67
2020/12/30 10:18:01;;;;;;;34.70;18.17;;;;;;;4.76;97.52;99886.66;1785511;80;21630;-67
2020/12/30 10:20:29;;;;;;;29.92;14.25;;;;;;;4.77;97.50;99886.21;1785399;79;21489;-66
2020/12/30 10:22:57;;;;;;;38.88;16.12;;;;;;;4.78;97.53;99892.69;1782565;79;21135;-65
2020/12/30 10:25:25;;;;;;;58.75;18.42;;;;;;;4.76;97.57;99886.66;1785329;80;21143;-65
2020/12/30 10:27:53;;;;;;;38.13;19.55;;;;;;;4.74;97.56;99869.28;1781669;80;21359;-65
2020/12/30 10:30:20;;;;;;;39.45;18.57;;;;;;;4.77;97.62;99883.16;1779286;80;21107;-65
2020/12/30 10:32:48;;;;;;;36.90;17.57;;;;;;;4.77;97.59;99880.55;1779460;80;21538;-66
2020/12/30 10:35:19;;;;;;;29.15;16.62;;;;;;;4.78;97.53;99875.73;1779337;80;21071;-66
2020/12/30 10:37:48;;;;;;;36.33;17.30;;;;;;;4.77;97.54;99874.02;1760261;79;21093;-65
2020/12/30 10:40:16;;;;;;;44.67;19.45;;;;;;;4.74;97.47;99866.27;1767789;80;21204;-62
2020/12/30 10:42:44;;;;;;;28.98;15.05;;;;;;;4.74;97.54;99867.56;1832901;78;21142;-65
2020/12/30 10:45:12;;;;;;;36.55;17.40;;;;;;;4.73;97.50;99868.44;1832716;78;21115;-64
2020/12/30 10:47:41;;;;;;;26.55;14.53;;;;;;;4.73;97.51;99859.75;1791939;77;21106;-73
2020/12/30 10:50:09;;;;;;;31.20;17.40;;;;;;;4.72;97.59;99866.72;1760292;81;21110;-78
2020/12/30 10:52:36;;;;;;;29.80;16.10;;;;;;;4.67;97.62;99859.84;1748932;81;21134;-76
2020/12/30 10:55:04;;;;;;;29.10;15.98;;;;;;;4.67;97.63;99854.63;1752657;81;21146;-74
2020/12/30 10:57:32;;;;;;;33.53;17.35;;;;;;;4.68;97.65;99863.75;1761011;81;21078;-78
2020/12/30 11:00:00;;;;;;;29.00;15.48;;;;;;;4.68;97.72;99859.84;1759931;81;21125;-78
2020/12/30 11:02:27;;;;;;;40.38;19.65;;;;;;;4.67;97.79;99856.83;1760240;81;21106;-75
2020/12/30 11:04:55;;;;;;;41.98;18.37;;;;;;;4.65;97.90;99857.29;1759661;81;21197;-80
2020/12/30 11:07:23;;;;;;;38.05;19.37;;;;;;;4.65;97.97;99853.80;1759491;81;21126;-77
2020/12/30 11:09:52;;;;;;;34.05;16.85;;;;;;;4.68;97.96;99849.40;1744623;81;21126;-79
2020/12/30 11:12:21;;;;;;;42.75;18.55;;;;;;;4.69;97.97;99848.50;1723166;81;21099;-75
2020/12/30 11:14:49;;;;;;;38.13;18.10;;;;;;;4.70;98.04;99842.86;1735868;81;21130;-77
2020/12/30 11:17:16;;;;;;;36.25;18.27;;;;;;;4.72;98.16;99832.81;1744748;81;21365;-79
2020/12/30 11:19:44;;;;;;;33.60;16.97;;;;;;;4.75;98.09;99822.31;1739347;81;21596;-77
2020/12/30 11:22:11;;;;;;;43.58;18.27;;;;;;;4.76;98.10;99825.77;1756938;81;21113;-76
2020/12/30 11:24:39;;;;;;;38.00;19.57;;;;;;;4.77;98.09;99837.50;1720315;81;21094;-77
2020/12/30 11:27:07;;;;;;;36.28;18.23;;;;;;;4.77;98.10;99838.80;1718831;80;21137;-76
2020/12/30 11:29:34;;;;;;;36.75;19.35;;;;;;;4.78;98.06;99829.22;1755354;80;21360;-75
2020/12/30 11:32:03;;;;;;;34.45;19.35;;;;;;;4.82;98.08;99829.13;1750901;81;21090;-74
2020/12/30 11:34:31;;;;;;;30.43;17.42;;;;;;;4.83;98.09;99821.73;1712057;81;21102;-76
2020/12/30 11:36:59;;;;;;;31.12;18.12;;;;;;;4.83;98.13;99817.83;1733463;81;21090;-75
2020/12/30 11:39:27;;;;;;;33.00;17.27;;;;;;;4.87;98.12;99821.22;1761929;81;21046;-74
2020/12/30 11:41:55;;;;;;;35.95;19.90;;;;;;;4.89;98.15;99817.29;1760108;81;21251;-76
2020/12/30 11:44:22;;;;;;;38.02;21.15;;;;;;;4.90;98.06;99815.08;1754886;81;21110;-77
2020/12/30 11:46:51;;;;;;;49.85;24.37;;;;;;;4.94;98.12;99803.70;1760602;80;21082;-76
2020/12/30 11:49:19;;;;;;;34.18;18.40;;;;;;;4.95;98.12;99797.61;1755971;81;21105;-74
2020/12/30 11:51:47;;;;;;;40.05;20.52;;;;;;;4.98;98.13;99807.53;1753049;81;21860;-75
2020/12/30 11:54:15;;;;;;;37.23;21.57;;;;;;;5.01;98.04;99804.00;1753279;81;21198;-79